sensor_id;sensor_type;location;lat;lon;timestamp;P1;durP1;ratioP1;P2;durP2;ratioP2
58697;SDS011;44475;53.206;-6.106;2023-06-22T00:00:49;5.15;;;2.80;;
58697;SDS011;44475;53.206;-6.106;2023-06-22T00:03:19;4.03;;;2.83;;
58697;SDS011;44475;53.206;-6.106;2023-06-22T00:05:47;6.72;;;2.50;;
58697;SDS011;44475;53.206;-6.106;2023-06-22T00:08:14;4.60;;;2.45;;
58697;SDS011;44475;53.206;-6.106;2023-06-22T00:10:41;5.07;;;2.58;;
58697;SDS011;44475;53.206;-6.106;2023-06-22T00:13:08;3.72;;;2.45;;
58697;SDS011;44475;53.206;-6.106;2023-06-22T00:15:36;3.88;;;2.60;;
58697;SDS011;44475;53.206;-6.106;2023-06-22T00:18:04;6.05;;;2.50;;
58697;SDS011;44475;53.206;-6.106;2023-06-22T00:20:34;4.10;;;2.60;;
58697;SDS011;44475;53.206;-6.106;2023-06-22T00:23:04;4.30;;;2.53;;
58697;SDS011;44475;53.206;-6.106;2023-06-22T00:25:39;3.70;;;2.30;;
58697;SDS011;44475;53.206;-6.106;2023-06-22T00:28:06;3.83;;;2.60;;
58697;SDS011;44475;53.206;-6.106;2023-06-22T00:30:34;3.70;;;2.38;;
58697;SDS011;44475;53.206;-6.106;2023-06-22T00:33:01;5.35;;;2.47;;
58697;SDS011;44475;53.206;-6.106;2023-06-22T00:35:27;3.65;;;2.35;;
58697;SDS011;44475;53.206;-6.106;2023-06-22T00:37:56;4.80;;;2.60;;
58697;SDS011;44475;53.206;-6.106;2023-06-22T00:40:28;4.07;;;2.55;;
58697;SDS011;44475;53.206;-6.106;2023-06-22T00:42:56;3.45;;;2.40;;
58697;SDS011;44475;53.206;-6.106;2023-06-22T00:45:23;4.65;;;2.60;;
58697;SDS011;44475;53.206;-6.106;2023-06-22T00:47:51;4.07;;;2.30;;
58697;SDS011;44475;53.206;-6.106;2023-06-22T00:50:19;3.65;;;2.40;;
58697;SDS011;44475;53.206;-6.106;2023-06-22T00:52:51;3.88;;;2.60;;
58697;SDS011;44475;53.206;-6.106;2023-06-22T00:55:21;3.03;;;2.40;;
58697;SDS011;44475;53.206;-6.106;2023-06-22T00:57:49;4.90;;;2.47;;
58697;SDS011;44475;53.206;-6.106;2023-06-22T01:00:15;3.88;;;2.50;;
58697;SDS011;44475;53.206;-6.106;2023-06-22T01:02:44;5.05;;;2.78;;
58697;SDS011;44475;53.206;-6.106;2023-06-22T01:05:12;2.97;;;2.35;;
58697;SDS011;44475;53.206;-6.106;2023-06-22T01:10:50;3.15;;;2.28;;
58697;SDS011;44475;53.206;-6.106;2023-06-22T01:13:47;3.10;;;2.30;;
58697;SDS011;44475;53.206;-6.106;2023-06-22T01:16:26;3.55;;;2.42;;
58697;SDS011;44475;53.206;-6.106;2023-06-22T01:19:00;3.28;;;2.33;;
58697;SDS011;44475;53.206;-6.106;2023-06-22T01:21:41;4.65;;;2.42;;
58697;SDS011;44475;53.206;-6.106;2023-06-22T01:29:48;3.38;;;2.40;;
58697;SDS011;44475;53.206;-6.106;2023-06-22T01:32:26;3.10;;;2.28;;
58697;SDS011;44475;53.206;-6.106;2023-06-22T01:34:58;2.67;;;2.15;;
58697;SDS011;44475;53.206;-6.106;2023-06-22T01:37:29;3.07;;;2.27;;
58697;SDS011;44475;53.206;-6.106;2023-06-22T01:39:57;3.75;;;2.35;;
58697;SDS011;44475;53.206;-6.106;2023-06-22T01:42:24;3.30;;;2.40;;
58697;SDS011;44475;53.206;-6.106;2023-06-22T01:44:52;3.65;;;2.30;;
58697;SDS011;44475;53.206;-6.106;2023-06-22T01:47:20;3.67;;;2.28;;
58697;SDS011;44475;53.206;-6.106;2023-06-22T01:49:47;2.58;;;2.03;;
58697;SDS011;44475;53.206;-6.106;2023-06-22T01:52:16;3.17;;;2.25;;
58697;SDS011;44475;53.206;-6.106;2023-06-22T01:54:44;3.03;;;2.10;;
58697;SDS011;44475;53.206;-6.106;2023-06-22T01:57:11;3.55;;;2.30;;
58697;SDS011;44475;53.206;-6.106;2023-06-22T01:59:59;4.30;;;2.30;;
58697;SDS011;44475;53.206;-6.106;2023-06-22T02:02:33;2.72;;;2.00;;
58697;SDS011;44475;53.206;-6.106;2023-06-22T02:05:06;3.20;;;2.25;;
58697;SDS011;44475;53.206;-6.106;2023-06-22T02:07:39;3.13;;;2.30;;
58697;SDS011;44475;53.206;-6.106;2023-06-22T02:10:11;2.95;;;2.10;;
58697;SDS011;44475;53.206;-6.106;2023-06-22T02:12:41;3.00;;;2.20;;
58697;SDS011;44475;53.206;-6.106;2023-06-22T02:15:09;3.15;;;2.35;;
58697;SDS011;44475;53.206;-6.106;2023-06-22T02:17:38;2.55;;;2.00;;
58697;SDS011;44475;53.206;-6.106;2023-06-22T02:20:04;5.22;;;2.38;;
58697;SDS011;44475;53.206;-6.106;2023-06-22T02:22:34;2.60;;;1.92;;
58697;SDS011;44475;53.206;-6.106;2023-06-22T02:25:01;3.13;;;1.92;;
58697;SDS011;44475;53.206;-6.106;2023-06-22T02:27:27;3.15;;;2.10;;
58697;SDS011;44475;53.206;-6.106;2023-06-22T02:29:54;2.60;;;2.05;;
58697;SDS011;44475;53.206;-6.106;2023-06-22T02:32:20;4.03;;;2.25;;
58697;SDS011;44475;53.206;-6.106;2023-06-22T02:34:46;5.18;;;2.33;;
58697;SDS011;44475;53.206;-6.106;2023-06-22T02:37:15;2.70;;;2.15;;
58697;SDS011;44475;53.206;-6.106;2023-06-22T02:39:41;3.22;;;2.33;;
58697;SDS011;44475;53.206;-6.106;2023-06-22T02:42:08;3.58;;;2.10;;
58697;SDS011;44475;53.206;-6.106;2023-06-22T02:44:36;2.85;;;2.10;;
58697;SDS011;44475;53.206;-6.106;2023-06-22T02:47:02;2.92;;;2.22;;
58697;SDS011;44475;53.206;-6.106;2023-06-22T02:49:28;3.70;;;2.10;;
58697;SDS011;44475;53.206;-6.106;2023-06-22T02:51:57;3.40;;;2.20;;
58697;SDS011;44475;53.206;-6.106;2023-06-22T02:54:23;2.85;;;2.00;;
58697;SDS011;44475;53.206;-6.106;2023-06-22T02:56:52;2.75;;;2.05;;
58697;SDS011;44475;53.206;-6.106;2023-06-22T02:59:20;3.20;;;2.10;;
58697;SDS011;44475;53.206;-6.106;2023-06-22T03:01:50;2.53;;;1.92;;
58697;SDS011;44475;53.206;-6.106;2023-06-22T03:04:22;2.85;;;2.10;;
58697;SDS011;44475;53.206;-6.106;2023-06-22T03:06:48;2.85;;;2.15;;
58697;SDS011;44475;53.206;-6.106;2023-06-22T03:09:16;2.67;;;1.90;;
58697;SDS011;44475;53.206;-6.106;2023-06-22T03:11:43;3.70;;;2.20;;
58697;SDS011;44475;53.206;-6.106;2023-06-22T03:14:09;2.95;;;2.17;;
58697;SDS011;44475;53.206;-6.106;2023-06-22T03:16:35;3.45;;;2.13;;
58697;SDS011;44475;53.206;-6.106;2023-06-22T03:19:02;2.90;;;2.20;;
58697;SDS011;44475;53.206;-6.106;2023-06-22T03:21:28;3.28;;;2.20;;
58697;SDS011;44475;53.206;-6.106;2023-06-22T03:23:55;3.17;;;2.08;;
58697;SDS011;44475;53.206;-6.106;2023-06-22T03:26:21;2.53;;;2.00;;
58697;SDS011;44475;53.206;-6.106;2023-06-22T03:28:49;4.22;;;2.20;;
58697;SDS011;44475;53.206;-6.106;2023-06-22T03:31:16;2.63;;;2.05;;
58697;SDS011;44475;53.206;-6.106;2023-06-22T03:33:46;2.92;;;2.10;;
58697;SDS011;44475;53.206;-6.106;2023-06-22T03:36:15;4.32;;;2.33;;
58697;SDS011;44475;53.206;-6.106;2023-06-22T03:38:47;2.58;;;2.00;;
58697;SDS011;44475;53.206;-6.106;2023-06-22T03:41:14;4.85;;;2.28;;
58697;SDS011;44475;53.206;-6.106;2023-06-22T03:43:41;2.83;;;2.08;;
58697;SDS011;44475;53.206;-6.106;2023-06-22T03:46:07;2.65;;;2.00;;
58697;SDS011;44475;53.206;-6.106;2023-06-22T03:48:33;2.83;;;2.20;;
58697;SDS011;44475;53.206;-6.106;2023-06-22T03:51:00;2.92;;;2.20;;
58697;SDS011;44475;53.206;-6.106;2023-06-22T03:53:28;3.17;;;2.20;;
58697;SDS011;44475;53.206;-6.106;2023-06-22T03:55:55;3.88;;;2.20;;
58697;SDS011;44475;53.206;-6.106;2023-06-22T03:58:21;3.13;;;2.10;;
58697;SDS011;44475;53.206;-6.106;2023-06-22T04:00:48;2.78;;;2.10;;
58697;SDS011;44475;53.206;-6.106;2023-06-22T04:03:16;2.47;;;1.92;;
58697;SDS011;44475;53.206;-6.106;2023-06-22T04:05:45;3.30;;;2.22;;
58697;SDS011;44475;53.206;-6.106;2023-06-22T04:08:13;2.90;;;2.15;;
58697;SDS011;44475;53.206;-6.106;2023-06-22T04:10:40;4.20;;;2.10;;
58697;SDS011;44475;53.206;-6.106;2023-06-22T04:13:06;2.60;;;2.10;;
58697;SDS011;44475;53.206;-6.106;2023-06-22T04:15:33;3.85;;;2.40;;
58697;SDS011;44475;53.206;-6.106;2023-06-22T04:18:00;3.35;;;2.10;;
58697;SDS011;44475;53.206;-6.106;2023-06-22T04:20:26;3.13;;;2.00;;
58697;SDS011;44475;53.206;-6.106;2023-06-22T04:22:53;2.60;;;2.05;;
58697;SDS011;44475;53.206;-6.106;2023-06-22T04:25:19;3.03;;;2.20;;
58697;SDS011;44475;53.206;-6.106;2023-06-22T04:27:47;3.00;;;2.10;;
58697;SDS011;44475;53.206;-6.106;2023-06-22T04:30:13;2.80;;;1.98;;
58697;SDS011;44475;53.206;-6.106;2023-06-22T04:32:42;2.45;;;1.90;;
58697;SDS011;44475;53.206;-6.106;2023-06-22T04:35:09;2.40;;;2.03;;
58697;SDS011;44475;53.206;-6.106;2023-06-22T04:37:35;2.95;;;2.20;;
58697;SDS011;44475;53.206;-6.106;2023-06-22T04:40:01;3.50;;;2.10;;
58697;SDS011;44475;53.206;-6.106;2023-06-22T04:42:30;2.60;;;2.10;;
58697;SDS011;44475;53.206;-6.106;2023-06-22T04:44:59;3.25;;;2.20;;
58697;SDS011;44475;53.206;-6.106;2023-06-22T04:47:25;2.72;;;2.20;;
58697;SDS011;44475;53.206;-6.106;2023-06-22T04:49:51;2.38;;;2.00;;
58697;SDS011;44475;53.206;-6.106;2023-06-22T04:52:17;2.75;;;2.10;;
58697;SDS011;44475;53.206;-6.106;2023-06-22T04:54:45;3.67;;;2.35;;
58697;SDS011;44475;53.206;-6.106;2023-06-22T04:57:15;2.47;;;2.08;;
58697;SDS011;44475;53.206;-6.106;2023-06-22T04:59:42;2.83;;;2.03;;
58697;SDS011;44475;53.206;-6.106;2023-06-22T05:02:09;2.70;;;1.90;;
58697;SDS011;44475;53.206;-6.106;2023-06-22T05:04:35;2.92;;;2.13;;
58697;SDS011;44475;53.206;-6.106;2023-06-22T05:07:03;2.75;;;1.92;;
58697;SDS011;44475;53.206;-6.106;2023-06-22T05:09:30;2.80;;;2.20;;
58697;SDS011;44475;53.206;-6.106;2023-06-22T05:11:57;3.17;;;2.08;;
58697;SDS011;44475;53.206;-6.106;2023-06-22T05:14:24;2.75;;;2.10;;
58697;SDS011;44475;53.206;-6.106;2023-06-22T05:16:51;3.08;;;2.13;;
58697;SDS011;44475;53.206;-6.106;2023-06-22T05:19:17;3.67;;;2.17;;
58697;SDS011;44475;53.206;-6.106;2023-06-22T05:21:43;2.65;;;2.10;;
58697;SDS011;44475;53.206;-6.106;2023-06-22T05:24:10;3.85;;;2.10;;
58697;SDS011;44475;53.206;-6.106;2023-06-22T05:26:37;3.13;;;2.30;;
58697;SDS011;44475;53.206;-6.106;2023-06-22T05:29:03;2.97;;;2.20;;
58697;SDS011;44475;53.206;-6.106;2023-06-22T05:31:29;3.35;;;2.15;;
58697;SDS011;44475;53.206;-6.106;2023-06-22T05:33:56;3.15;;;2.30;;
58697;SDS011;44475;53.206;-6.106;2023-06-22T05:36:22;2.92;;;2.10;;
58697;SDS011;44475;53.206;-6.106;2023-06-22T05:38:50;2.78;;;2.15;;
58697;SDS011;44475;53.206;-6.106;2023-06-22T05:41:17;3.20;;;2.13;;
58697;SDS011;44475;53.206;-6.106;2023-06-22T05:43:44;3.45;;;2.10;;
58697;SDS011;44475;53.206;-6.106;2023-06-22T05:46:10;3.20;;;2.17;;
58697;SDS011;44475;53.206;-6.106;2023-06-22T05:48:36;2.70;;;2.00;;
58697;SDS011;44475;53.206;-6.106;2023-06-22T05:51:03;3.00;;;2.10;;
58697;SDS011;44475;53.206;-6.106;2023-06-22T05:53:29;2.78;;;2.13;;
58697;SDS011;44475;53.206;-6.106;2023-06-22T05:55:55;3.35;;;2.28;;
58697;SDS011;44475;53.206;-6.106;2023-06-22T05:58:21;2.88;;;2.00;;
58697;SDS011;44475;53.206;-6.106;2023-06-22T06:00:48;2.88;;;2.30;;
58697;SDS011;44475;53.206;-6.106;2023-06-22T06:03:14;2.95;;;2.10;;
58697;SDS011;44475;53.206;-6.106;2023-06-22T06:05:42;2.83;;;2.25;;
58697;SDS011;44475;53.206;-6.106;2023-06-22T06:08:10;2.72;;;2.05;;
58697;SDS011;44475;53.206;-6.106;2023-06-22T06:10:37;2.72;;;1.95;;
58697;SDS011;44475;53.206;-6.106;2023-06-22T06:13:03;2.70;;;2.20;;
58697;SDS011;44475;53.206;-6.106;2023-06-22T06:15:33;3.20;;;2.13;;
58697;SDS011;44475;53.206;-6.106;2023-06-22T06:18:00;3.55;;;2.40;;
58697;SDS011;44475;53.206;-6.106;2023-06-22T06:20:29;3.67;;;2.20;;
58697;SDS011;44475;53.206;-6.106;2023-06-22T06:22:56;4.13;;;2.20;;
58697;SDS011;44475;53.206;-6.106;2023-06-22T06:25:22;2.85;;;2.05;;
58697;SDS011;44475;53.206;-6.106;2023-06-22T06:27:50;3.30;;;2.03;;
58697;SDS011;44475;53.206;-6.106;2023-06-22T06:30:17;3.63;;;2.33;;
58697;SDS011;44475;53.206;-6.106;2023-06-22T06:32:45;3.17;;;2.13;;
58697;SDS011;44475;53.206;-6.106;2023-06-22T06:35:12;3.22;;;2.22;;
58697;SDS011;44475;53.206;-6.106;2023-06-22T06:37:41;3.47;;;2.33;;
58697;SDS011;44475;53.206;-6.106;2023-06-22T06:40:09;3.63;;;2.30;;
58697;SDS011;44475;53.206;-6.106;2023-06-22T06:42:46;3.13;;;2.25;;
58697;SDS011;44475;53.206;-6.106;2023-06-22T06:45:16;3.40;;;2.30;;
58697;SDS011;44475;53.206;-6.106;2023-06-22T06:47:44;3.15;;;2.30;;
58697;SDS011;44475;53.206;-6.106;2023-06-22T06:50:10;2.85;;;2.30;;
58697;SDS011;44475;53.206;-6.106;2023-06-22T06:52:37;3.25;;;2.28;;
58697;SDS011;44475;53.206;-6.106;2023-06-22T06:55:04;2.78;;;2.10;;
58697;SDS011;44475;53.206;-6.106;2023-06-22T06:57:34;3.42;;;2.40;;
58697;SDS011;44475;53.206;-6.106;2023-06-22T07:00:02;3.17;;;2.33;;
58697;SDS011;44475;53.206;-6.106;2023-06-22T07:02:34;4.70;;;2.38;;
58697;SDS011;44475;53.206;-6.106;2023-06-22T07:05:01;3.20;;;2.50;;
58697;SDS011;44475;53.206;-6.106;2023-06-22T07:07:29;2.85;;;2.20;;
58697;SDS011;44475;53.206;-6.106;2023-06-22T07:09:55;4.10;;;2.30;;
58697;SDS011;44475;53.206;-6.106;2023-06-22T07:12:22;3.10;;;2.30;;
58697;SDS011;44475;53.206;-6.106;2023-06-22T07:14:48;3.50;;;2.40;;
58697;SDS011;44475;53.206;-6.106;2023-06-22T07:17:16;3.67;;;2.47;;
58697;SDS011;44475;53.206;-6.106;2023-06-22T07:19:42;4.28;;;2.60;;
58697;SDS011;44475;53.206;-6.106;2023-06-22T07:22:08;3.47;;;2.40;;
58697;SDS011;44475;53.206;-6.106;2023-06-22T07:24:34;3.63;;;2.60;;
58697;SDS011;44475;53.206;-6.106;2023-06-22T07:27:02;5.15;;;2.58;;
58697;SDS011;44475;53.206;-6.106;2023-06-22T07:29:30;4.03;;;2.60;;
58697;SDS011;44475;53.206;-6.106;2023-06-22T07:31:57;5.63;;;2.40;;
58697;SDS011;44475;53.206;-6.106;2023-06-22T07:34:23;3.08;;;2.40;;
58697;SDS011;44475;53.206;-6.106;2023-06-22T07:36:49;9.35;;;2.80;;
58697;SDS011;44475;53.206;-6.106;2023-06-22T07:39:16;13.85;;;2.80;;
58697;SDS011;44475;53.206;-6.106;2023-06-22T07:41:42;6.72;;;2.60;;
58697;SDS011;44475;53.206;-6.106;2023-06-22T07:44:08;7.03;;;2.80;;
58697;SDS011;44475;53.206;-6.106;2023-06-22T07:46:35;4.28;;;2.75;;
58697;SDS011;44475;53.206;-6.106;2023-06-22T07:49:01;5.15;;;2.60;;
58697;SDS011;44475;53.206;-6.106;2023-06-22T07:51:27;5.55;;;2.58;;
58697;SDS011;44475;53.206;-6.106;2023-06-22T07:53:54;6.03;;;2.97;;
58697;SDS011;44475;53.206;-6.106;2023-06-22T07:56:20;5.18;;;2.70;;
58697;SDS011;44475;53.206;-6.106;2023-06-22T07:58:47;5.82;;;3.10;;
58697;SDS011;44475;53.206;-6.106;2023-06-22T08:01:13;4.60;;;2.60;;
58697;SDS011;44475;53.206;-6.106;2023-06-22T08:03:40;4.90;;;2.80;;
58697;SDS011;44475;53.206;-6.106;2023-06-22T08:06:07;4.97;;;2.75;;
58697;SDS011;44475;53.206;-6.106;2023-06-22T08:08:34;5.60;;;2.60;;
58697;SDS011;44475;53.206;-6.106;2023-06-22T08:11:01;4.53;;;2.60;;
58697;SDS011;44475;53.206;-6.106;2023-06-22T08:13:28;8.02;;;2.80;;
58697;SDS011;44475;53.206;-6.106;2023-06-22T08:15:54;6.57;;;3.20;;
58697;SDS011;44475;53.206;-6.106;2023-06-22T08:18:21;5.03;;;3.20;;
58697;SDS011;44475;53.206;-6.106;2023-06-22T08:20:47;5.15;;;2.90;;
58697;SDS011;44475;53.206;-6.106;2023-06-22T08:23:14;5.60;;;3.00;;
58697;SDS011;44475;53.206;-6.106;2023-06-22T08:25:40;6.85;;;2.80;;
58697;SDS011;44475;53.206;-6.106;2023-06-22T08:28:07;6.22;;;2.92;;
58697;SDS011;44475;53.206;-6.106;2023-06-22T08:30:33;5.45;;;2.80;;
58697;SDS011;44475;53.206;-6.106;2023-06-22T08:32:59;7.65;;;3.00;;
58697;SDS011;44475;53.206;-6.106;2023-06-22T08:35:25;6.88;;;3.47;;
58697;SDS011;44475;53.206;-6.106;2023-06-22T08:37:52;5.47;;;2.88;;
58697;SDS011;44475;53.206;-6.106;2023-06-22T08:40:19;5.60;;;3.00;;
58697;SDS011;44475;53.206;-6.106;2023-06-22T08:42:46;5.40;;;3.00;;
58697;SDS011;44475;53.206;-6.106;2023-06-22T08:45:13;4.75;;;3.20;;
58697;SDS011;44475;53.206;-6.106;2023-06-22T08:47:41;6.60;;;3.17;;
58697;SDS011;44475;53.206;-6.106;2023-06-22T08:50:10;6.95;;;3.15;;
58697;SDS011;44475;53.206;-6.106;2023-06-22T08:52:38;7.22;;;3.35;;
58697;SDS011;44475;53.206;-6.106;2023-06-22T08:55:09;5.55;;;3.17;;
58697;SDS011;44475;53.206;-6.106;2023-06-22T08:57:35;5.32;;;3.17;;
58697;SDS011;44475;53.206;-6.106;2023-06-22T09:00:05;5.82;;;3.00;;
58697;SDS011;44475;53.206;-6.106;2023-06-22T09:02:36;4.80;;;3.20;;
58697;SDS011;44475;53.206;-6.106;2023-06-22T09:05:05;6.22;;;2.90;;
58697;SDS011;44475;53.206;-6.106;2023-06-22T09:07:32;6.22;;;3.15;;
58697;SDS011;44475;53.206;-6.106;2023-06-22T09:09:59;8.57;;;3.10;;
58697;SDS011;44475;53.206;-6.106;2023-06-22T09:12:26;5.47;;;2.92;;
58697;SDS011;44475;53.206;-6.106;2023-06-22T09:14:52;7.70;;;3.15;;
58697;SDS011;44475;53.206;-6.106;2023-06-22T09:17:19;4.90;;;3.13;;
58697;SDS011;44475;53.206;-6.106;2023-06-22T09:19:45;4.18;;;3.08;;
58697;SDS011;44475;53.206;-6.106;2023-06-22T09:22:12;5.13;;;2.90;;
58697;SDS011;44475;53.206;-6.106;2023-06-22T09:24:39;4.85;;;3.13;;
58697;SDS011;44475;53.206;-6.106;2023-06-22T09:27:05;5.15;;;3.03;;
58697;SDS011;44475;53.206;-6.106;2023-06-22T09:29:32;4.70;;;3.17;;
58697;SDS011;44475;53.206;-6.106;2023-06-22T09:31:59;4.13;;;3.00;;
58697;SDS011;44475;53.206;-6.106;2023-06-22T09:34:25;5.10;;;3.08;;
58697;SDS011;44475;53.206;-6.106;2023-06-22T09:36:52;5.45;;;3.20;;
58697;SDS011;44475;53.206;-6.106;2023-06-22T09:39:18;5.90;;;3.05;;
58697;SDS011;44475;53.206;-6.106;2023-06-22T09:41:44;4.85;;;3.00;;
58697;SDS011;44475;53.206;-6.106;2023-06-22T09:44:11;4.78;;;3.28;;
58697;SDS011;44475;53.206;-6.106;2023-06-22T09:46:37;5.75;;;2.95;;
58697;SDS011;44475;53.206;-6.106;2023-06-22T09:49:03;4.93;;;3.17;;
58697;SDS011;44475;53.206;-6.106;2023-06-22T09:51:29;5.55;;;3.20;;
58697;SDS011;44475;53.206;-6.106;2023-06-22T09:53:56;4.80;;;3.13;;
58697;SDS011;44475;53.206;-6.106;2023-06-22T09:56:23;4.40;;;3.17;;
58697;SDS011;44475;53.206;-6.106;2023-06-22T09:58:49;5.75;;;3.10;;
58697;SDS011;44475;53.206;-6.106;2023-06-22T10:01:17;4.72;;;2.95;;
58697;SDS011;44475;53.206;-6.106;2023-06-22T10:03:45;6.57;;;2.97;;
58697;SDS011;44475;53.206;-6.106;2023-06-22T10:06:12;3.75;;;2.90;;
58697;SDS011;44475;53.206;-6.106;2023-06-22T10:08:38;4.78;;;3.10;;
58697;SDS011;44475;53.206;-6.106;2023-06-22T10:11:05;4.60;;;3.20;;
58697;SDS011;44475;53.206;-6.106;2023-06-22T10:13:32;4.63;;;3.10;;
58697;SDS011;44475;53.206;-6.106;2023-06-22T10:15:58;4.28;;;3.10;;
58697;SDS011;44475;53.206;-6.106;2023-06-22T10:18:24;4.70;;;3.20;;
58697;SDS011;44475;53.206;-6.106;2023-06-22T10:20:51;4.85;;;3.30;;
58697;SDS011;44475;53.206;-6.106;2023-06-22T10:23:18;4.88;;;3.33;;
58697;SDS011;44475;53.206;-6.106;2023-06-22T10:25:45;4.88;;;3.17;;
58697;SDS011;44475;53.206;-6.106;2023-06-22T10:28:11;4.40;;;3.20;;
58697;SDS011;44475;53.206;-6.106;2023-06-22T10:30:38;5.57;;;3.53;;
58697;SDS011;44475;53.206;-6.106;2023-06-22T10:33:07;4.43;;;3.50;;
58697;SDS011;44475;53.206;-6.106;2023-06-22T10:35:33;4.68;;;3.10;;
58697;SDS011;44475;53.206;-6.106;2023-06-22T10:38:02;5.60;;;3.25;;
58697;SDS011;44475;53.206;-6.106;2023-06-22T10:40:29;4.60;;;3.25;;
58697;SDS011;44475;53.206;-6.106;2023-06-22T10:42:55;4.28;;;3.10;;
58697;SDS011;44475;53.206;-6.106;2023-06-22T10:45:21;4.28;;;3.10;;
58697;SDS011;44475;53.206;-6.106;2023-06-22T10:47:48;4.57;;;3.50;;
58697;SDS011;44475;53.206;-6.106;2023-06-22T10:50:14;4.10;;;3.30;;
58697;SDS011;44475;53.206;-6.106;2023-06-22T10:52:40;4.20;;;3.20;;
58697;SDS011;44475;53.206;-6.106;2023-06-22T10:55:07;6.50;;;3.10;;
58697;SDS011;44475;53.206;-6.106;2023-06-22T10:57:34;5.10;;;3.92;;
58697;SDS011;44475;53.206;-6.106;2023-06-22T11:00:02;4.53;;;3.00;;
58697;SDS011;44475;53.206;-6.106;2023-06-22T11:02:31;4.05;;;3.05;;
58697;SDS011;44475;53.206;-6.106;2023-06-22T11:04:57;4.65;;;3.15;;
58697;SDS011;44475;53.206;-6.106;2023-06-22T11:07:25;4.47;;;3.20;;
58697;SDS011;44475;53.206;-6.106;2023-06-22T11:09:54;4.40;;;3.28;;
58697;SDS011;44475;53.206;-6.106;2023-06-22T11:12:20;4.18;;;3.20;;
58697;SDS011;44475;53.206;-6.106;2023-06-22T11:14:46;4.47;;;3.15;;
58697;SDS011;44475;53.206;-6.106;2023-06-22T11:17:15;4.15;;;3.20;;
58697;SDS011;44475;53.206;-6.106;2023-06-22T11:19:41;4.70;;;2.97;;
58697;SDS011;44475;53.206;-6.106;2023-06-22T11:22:08;4.45;;;3.20;;
58697;SDS011;44475;53.206;-6.106;2023-06-22T11:24:35;4.30;;;2.88;;
58697;SDS011;44475;53.206;-6.106;2023-06-22T11:27:01;3.92;;;3.00;;
58697;SDS011;44475;53.206;-6.106;2023-06-22T11:29:27;6.07;;;3.20;;
58697;SDS011;44475;53.206;-6.106;2023-06-22T11:31:53;4.35;;;3.08;;
58697;SDS011;44475;53.206;-6.106;2023-06-22T11:34:20;6.07;;;3.10;;
58697;SDS011;44475;53.206;-6.106;2023-06-22T11:36:46;5.45;;;3.22;;
58697;SDS011;44475;53.206;-6.106;2023-06-22T11:39:13;4.53;;;3.30;;
58697;SDS011;44475;53.206;-6.106;2023-06-22T11:41:40;5.65;;;3.10;;
58697;SDS011;44475;53.206;-6.106;2023-06-22T11:44:07;4.28;;;3.10;;
58697;SDS011;44475;53.206;-6.106;2023-06-22T11:46:33;5.22;;;3.05;;
58697;SDS011;44475;53.206;-6.106;2023-06-22T11:49:00;5.72;;;3.22;;
58697;SDS011;44475;53.206;-6.106;2023-06-22T11:51:27;3.55;;;2.88;;
58697;SDS011;44475;53.206;-6.106;2023-06-22T11:53:53;3.97;;;2.83;;
58697;SDS011;44475;53.206;-6.106;2023-06-22T11:56:19;5.93;;;3.08;;
58697;SDS011;44475;53.206;-6.106;2023-06-22T11:58:46;5.88;;;2.92;;
58697;SDS011;44475;53.206;-6.106;2023-06-22T12:01:12;7.80;;;2.80;;
58697;SDS011;44475;53.206;-6.106;2023-06-22T12:03:40;4.10;;;3.00;;
58697;SDS011;44475;53.206;-6.106;2023-06-22T12:06:08;5.43;;;2.78;;
58697;SDS011;44475;53.206;-6.106;2023-06-22T12:08:35;5.88;;;3.10;;
58697;SDS011;44475;53.206;-6.106;2023-06-22T12:11:01;5.47;;;2.88;;
58697;SDS011;44475;53.206;-6.106;2023-06-22T12:13:27;5.38;;;2.92;;
58697;SDS011;44475;53.206;-6.106;2023-06-22T12:15:53;4.25;;;2.90;;
58697;SDS011;44475;53.206;-6.106;2023-06-22T12:18:20;5.38;;;3.03;;
58697;SDS011;44475;53.206;-6.106;2023-06-22T12:20:46;4.30;;;3.15;;
58697;SDS011;44475;53.206;-6.106;2023-06-22T12:23:13;6.18;;;2.88;;
58697;SDS011;44475;53.206;-6.106;2023-06-22T12:25:39;3.97;;;2.80;;
58697;SDS011;44475;53.206;-6.106;2023-06-22T12:28:06;6.90;;;2.72;;
58697;SDS011;44475;53.206;-6.106;2023-06-22T12:30:32;5.30;;;2.90;;
58697;SDS011;44475;53.206;-6.106;2023-06-22T12:32:59;3.67;;;2.67;;
58697;SDS011;44475;53.206;-6.106;2023-06-22T12:35:25;5.50;;;2.75;;
58697;SDS011;44475;53.206;-6.106;2023-06-22T12:37:51;5.60;;;2.72;;
58697;SDS011;44475;53.206;-6.106;2023-06-22T12:40:18;4.10;;;2.70;;
58697;SDS011;44475;53.206;-6.106;2023-06-22T12:42:44;3.42;;;2.40;;
58697;SDS011;44475;53.206;-6.106;2023-06-22T12:45:11;3.20;;;2.42;;
58697;SDS011;44475;53.206;-6.106;2023-06-22T12:47:37;4.80;;;2.70;;
58697;SDS011;44475;53.206;-6.106;2023-06-22T12:50:03;3.22;;;2.42;;
58697;SDS011;44475;53.206;-6.106;2023-06-22T12:52:30;4.00;;;2.60;;
58697;SDS011;44475;53.206;-6.106;2023-06-22T12:54:59;5.57;;;2.60;;
58697;SDS011;44475;53.206;-6.106;2023-06-22T12:57:25;3.30;;;2.40;;
58697;SDS011;44475;53.206;-6.106;2023-06-22T12:59:52;3.95;;;2.45;;
58697;SDS011;44475;53.206;-6.106;2023-06-22T13:02:18;4.63;;;2.25;;
58697;SDS011;44475;53.206;-6.106;2023-06-22T13:04:44;3.95;;;2.58;;
58697;SDS011;44475;53.206;-6.106;2023-06-22T13:07:11;4.05;;;2.50;;
58697;SDS011;44475;53.206;-6.106;2023-06-22T13:09:37;3.83;;;2.30;;
58697;SDS011;44475;53.206;-6.106;2023-06-22T13:12:03;3.20;;;2.30;;
58697;SDS011;44475;53.206;-6.106;2023-06-22T13:14:30;4.20;;;2.25;;
58697;SDS011;44475;53.206;-6.106;2023-06-22T13:16:56;3.60;;;2.10;;
58697;SDS011;44475;53.206;-6.106;2023-06-22T13:19:22;3.53;;;2.20;;
58697;SDS011;44475;53.206;-6.106;2023-06-22T13:21:49;4.07;;;1.95;;
58697;SDS011;44475;53.206;-6.106;2023-06-22T13:24:15;2.83;;;2.00;;
58697;SDS011;44475;53.206;-6.106;2023-06-22T13:26:42;3.92;;;2.20;;
58697;SDS011;44475;53.206;-6.106;2023-06-22T13:29:08;3.17;;;2.08;;
58697;SDS011;44475;53.206;-6.106;2023-06-22T13:31:34;2.75;;;2.00;;
58697;SDS011;44475;53.206;-6.106;2023-06-22T13:34:00;3.58;;;2.10;;
58697;SDS011;44475;53.206;-6.106;2023-06-22T13:36:27;3.15;;;2.10;;
58697;SDS011;44475;53.206;-6.106;2023-06-22T13:38:55;3.85;;;2.10;;
58697;SDS011;44475;53.206;-6.106;2023-06-22T13:41:22;2.95;;;2.10;;
58697;SDS011;44475;53.206;-6.106;2023-06-22T13:43:48;2.83;;;1.95;;
58697;SDS011;44475;53.206;-6.106;2023-06-22T13:46:14;3.03;;;1.90;;
58697;SDS011;44475;53.206;-6.106;2023-06-22T13:48:40;3.70;;;2.08;;
58697;SDS011;44475;53.206;-6.106;2023-06-22T13:51:07;2.80;;;1.83;;
58697;SDS011;44475;53.206;-6.106;2023-06-22T13:53:33;2.63;;;2.10;;
58697;SDS011;44475;53.206;-6.106;2023-06-22T13:55:59;2.58;;;1.90;;
58697;SDS011;44475;53.206;-6.106;2023-06-22T13:58:25;2.78;;;1.90;;
58697;SDS011;44475;53.206;-6.106;2023-06-22T14:00:52;4.63;;;1.88;;
58697;SDS011;44475;53.206;-6.106;2023-06-22T14:03:18;5.03;;;2.00;;
58697;SDS011;44475;53.206;-6.106;2023-06-22T14:05:44;3.35;;;2.00;;
58697;SDS011;44475;53.206;-6.106;2023-06-22T14:08:11;2.90;;;1.83;;
58697;SDS011;44475;53.206;-6.106;2023-06-22T14:10:38;5.13;;;1.90;;
58697;SDS011;44475;53.206;-6.106;2023-06-22T14:13:04;2.80;;;1.90;;
58697;SDS011;44475;53.206;-6.106;2023-06-22T14:15:31;5.22;;;1.85;;
58697;SDS011;44475;53.206;-6.106;2023-06-22T14:17:57;2.67;;;2.13;;
58697;SDS011;44475;53.206;-6.106;2023-06-22T14:20:24;2.70;;;2.10;;
58697;SDS011;44475;53.206;-6.106;2023-06-22T14:22:50;3.67;;;1.80;;
58697;SDS011;44475;53.206;-6.106;2023-06-22T14:25:17;3.67;;;1.92;;
58697;SDS011;44475;53.206;-6.106;2023-06-22T14:27:43;2.03;;;1.70;;
58697;SDS011;44475;53.206;-6.106;2023-06-22T14:30:09;2.67;;;1.77;;
58697;SDS011;44475;53.206;-6.106;2023-06-22T14:32:36;1.88;;;1.63;;
58697;SDS011;44475;53.206;-6.106;2023-06-22T14:35:02;4.15;;;1.90;;
58697;SDS011;44475;53.206;-6.106;2023-06-22T14:37:28;2.03;;;1.67;;
58697;SDS011;44475;53.206;-6.106;2023-06-22T14:39:55;3.20;;;1.83;;
58697;SDS011;44475;53.206;-6.106;2023-06-22T14:42:21;2.15;;;1.80;;